sensor_id;sensor_type;location;lat;lon;timestamp;P1;durP1;ratioP1;P2;durP2;ratioP2
76745;SDS011;65671;49.976;20.038;2022-12-07T00:01:27;11.98;;;7.60;;
76745;SDS011;65671;49.976;20.038;2022-12-07T00:03:56;12.35;;;6.72;;
76745;SDS011;65671;49.976;20.038;2022-12-07T00:06:26;11.45;;;6.90;;
76745;SDS011;65671;49.976;20.038;2022-12-07T00:11:18;12.20;;;6.63;;
76745;SDS011;65671;49.976;20.038;2022-12-07T00:13:45;13.27;;;6.95;;
76745;SDS011;65671;49.976;20.038;2022-12-07T00:16:15;14.73;;;8.07;;
76745;SDS011;65671;49.976;20.038;2022-12-07T00:18:43;13.77;;;8.13;;
76745;SDS011;65671;49.976;20.038;2022-12-07T00:21:13;17.48;;;8.70;;
76745;SDS011;65671;49.976;20.038;2022-12-07T00:23:39;11.95;;;8.40;;
76745;SDS011;65671;49.976;20.038;2022-12-07T00:26:06;17.52;;;8.88;;
76745;SDS011;65671;49.976;20.038;2022-12-07T00:28:36;15.27;;;8.38;;
76745;SDS011;65671;49.976;20.038;2022-12-07T00:31:08;14.88;;;7.70;;
76745;SDS011;65671;49.976;20.038;2022-12-07T00:33:35;15.57;;;8.65;;
76745;SDS011;65671;49.976;20.038;2022-12-07T00:36:02;16.00;;;9.23;;
76745;SDS011;65671;49.976;20.038;2022-12-07T00:38:31;13.25;;;8.13;;
76745;SDS011;65671;49.976;20.038;2022-12-07T00:40:59;13.88;;;8.65;;
76745;SDS011;65671;49.976;20.038;2022-12-07T00:43:26;15.57;;;9.75;;
76745;SDS011;65671;49.976;20.038;2022-12-07T00:45:52;15.38;;;9.10;;
76745;SDS011;65671;49.976;20.038;2022-12-07T00:48:19;14.68;;;8.15;;
76745;SDS011;65671;49.976;20.038;2022-12-07T00:50:45;15.43;;;8.95;;
76745;SDS011;65671;49.976;20.038;2022-12-07T00:53:11;18.25;;;9.43;;
76745;SDS011;65671;49.976;20.038;2022-12-07T00:58:03;17.00;;;8.95;;
76745;SDS011;65671;49.976;20.038;2022-12-07T01:00:29;13.68;;;8.68;;
76745;SDS011;65671;49.976;20.038;2022-12-07T01:02:55;20.48;;;8.70;;
76745;SDS011;65671;49.976;20.038;2022-12-07T01:05:20;13.75;;;6.70;;
76745;SDS011;65671;49.976;20.038;2022-12-07T01:07:46;18.17;;;10.05;;
76745;SDS011;65671;49.976;20.038;2022-12-07T01:10:12;15.63;;;9.48;;
76745;SDS011;65671;49.976;20.038;2022-12-07T01:12:38;17.50;;;9.30;;
76745;SDS011;65671;49.976;20.038;2022-12-07T01:15:04;16.25;;;9.50;;
76745;SDS011;65671;49.976;20.038;2022-12-07T01:20:02;17.75;;;9.90;;
76745;SDS011;65671;49.976;20.038;2022-12-07T01:22:28;20.25;;;9.52;;
76745;SDS011;65671;49.976;20.038;2022-12-07T01:24:53;17.15;;;10.20;;
76745;SDS011;65671;49.976;20.038;2022-12-07T01:27:19;16.17;;;9.27;;
76745;SDS011;65671;49.976;20.038;2022-12-07T01:29:44;18.75;;;9.68;;
76745;SDS011;65671;49.976;20.038;2022-12-07T01:32:10;16.38;;;9.07;;
76745;SDS011;65671;49.976;20.038;2022-12-07T01:37:01;17.50;;;9.37;;
76745;SDS011;65671;49.976;20.038;2022-12-07T01:39:26;17.75;;;10.65;;
76745;SDS011;65671;49.976;20.038;2022-12-07T01:41:52;21.02;;;11.93;;
76745;SDS011;65671;49.976;20.038;2022-12-07T01:51:52;20.55;;;11.75;;
76745;SDS011;65671;49.976;20.038;2022-12-07T01:54:26;20.20;;;11.07;;
76745;SDS011;65671;49.976;20.038;2022-12-07T01:56:53;20.23;;;10.88;;
76745;SDS011;65671;49.976;20.038;2022-12-07T01:59:23;20.80;;;10.98;;
76745;SDS011;65671;49.976;20.038;2022-12-07T02:01:51;22.73;;;12.60;;
76745;SDS011;65671;49.976;20.038;2022-12-07T02:04:18;21.13;;;11.90;;
76745;SDS011;65671;49.976;20.038;2022-12-07T02:06:44;19.42;;;10.65;;
76745;SDS011;65671;49.976;20.038;2022-12-07T02:09:11;22.55;;;12.35;;
76745;SDS011;65671;49.976;20.038;2022-12-07T02:11:37;24.10;;;11.98;;
76745;SDS011;65671;49.976;20.038;2022-12-07T02:14:03;19.15;;;10.60;;
76745;SDS011;65671;49.976;20.038;2022-12-07T02:22:09;15.88;;;9.73;;
76745;SDS011;65671;49.976;20.038;2022-12-07T02:27:59;16.08;;;8.80;;
76745;SDS011;65671;49.976;20.038;2022-12-07T02:30:31;17.65;;;9.55;;
76745;SDS011;65671;49.976;20.038;2022-12-07T02:41:01;18.58;;;9.70;;
76745;SDS011;65671;49.976;20.038;2022-12-07T02:43:33;16.42;;;9.70;;
76745;SDS011;65671;49.976;20.038;2022-12-07T02:48:48;17.52;;;9.52;;
76745;SDS011;65671;49.976;20.038;2022-12-07T02:51:17;15.75;;;8.93;;
76745;SDS011;65671;49.976;20.038;2022-12-07T02:53:43;16.83;;;9.13;;
76745;SDS011;65671;49.976;20.038;2022-12-07T03:01:18;13.80;;;8.63;;
76745;SDS011;65671;49.976;20.038;2022-12-07T03:04:05;15.07;;;8.38;;
76745;SDS011;65671;49.976;20.038;2022-12-07T03:06:48;14.65;;;8.20;;
76745;SDS011;65671;49.976;20.038;2022-12-07T03:12:08;12.90;;;7.90;;
76745;SDS011;65671;49.976;20.038;2022-12-07T03:14:41;15.15;;;8.07;;
76745;SDS011;65671;49.976;20.038;2022-12-07T03:17:24;12.27;;;7.75;;
76745;SDS011;65671;49.976;20.038;2022-12-07T03:19:54;12.88;;;7.30;;
76745;SDS011;65671;49.976;20.038;2022-12-07T03:22:23;13.50;;;7.90;;
76745;SDS011;65671;49.976;20.038;2022-12-07T03:24:57;16.85;;;8.10;;
76745;SDS011;65671;49.976;20.038;2022-12-07T03:27:26;15.40;;;8.35;;
76745;SDS011;65671;49.976;20.038;2022-12-07T03:32:39;13.88;;;8.27;;
76745;SDS011;65671;49.976;20.038;2022-12-07T03:35:25;15.40;;;8.38;;
76745;SDS011;65671;49.976;20.038;2022-12-07T03:37:56;17.63;;;8.85;;
76745;SDS011;65671;49.976;20.038;2022-12-07T03:40:32;16.20;;;8.68;;
76745;SDS011;65671;49.976;20.038;2022-12-07T03:43:09;17.02;;;9.15;;
76745;SDS011;65671;49.976;20.038;2022-12-07T03:48:22;17.70;;;9.73;;
76745;SDS011;65671;49.976;20.038;2022-12-07T03:51:12;15.45;;;8.38;;
76745;SDS011;65671;49.976;20.038;2022-12-07T03:54:29;17.23;;;8.80;;
76745;SDS011;65671;49.976;20.038;2022-12-07T03:56:34;18.40;;;8.43;;
76745;SDS011;65671;49.976;20.038;2022-12-07T03:59:01;13.50;;;7.57;;
76745;SDS011;65671;49.976;20.038;2022-12-07T04:03:52;11.80;;;7.22;;
76745;SDS011;65671;49.976;20.038;2022-12-07T04:08:43;10.27;;;6.53;;
76745;SDS011;65671;49.976;20.038;2022-12-07T04:13:33;11.17;;;6.17;;
76745;SDS011;65671;49.976;20.038;2022-12-07T04:16:22;16.55;;;6.53;;
76745;SDS011;65671;49.976;20.038;2022-12-07T04:18:47;10.32;;;6.45;;
76745;SDS011;65671;49.976;20.038;2022-12-07T04:23:38;10.33;;;6.57;;
76745;SDS011;65671;49.976;20.038;2022-12-07T04:28:28;9.73;;;6.27;;
76745;SDS011;65671;49.976;20.038;2022-12-07T04:30:54;14.75;;;7.20;;
76745;SDS011;65671;49.976;20.038;2022-12-07T04:33:19;13.75;;;6.88;;
76745;SDS011;65671;49.976;20.038;2022-12-07T04:38:10;7.97;;;5.63;;
76745;SDS011;65671;49.976;20.038;2022-12-07T04:40:35;7.90;;;5.63;;
76745;SDS011;65671;49.976;20.038;2022-12-07T04:43:01;10.65;;;5.78;;
76745;SDS011;65671;49.976;20.038;2022-12-07T04:47:52;9.47;;;5.73;;
76745;SDS011;65671;49.976;20.038;2022-12-07T04:52:43;6.78;;;4.55;;
76745;SDS011;65671;49.976;20.038;2022-12-07T04:57:33;5.97;;;4.17;;
76745;SDS011;65671;49.976;20.038;2022-12-07T05:02:24;6.80;;;4.43;;
76745;SDS011;65671;49.976;20.038;2022-12-07T05:07:15;7.63;;;4.67;;
76745;SDS011;65671;49.976;20.038;2022-12-07T05:12:06;7.17;;;4.87;;
76745;SDS011;65671;49.976;20.038;2022-12-07T05:14:31;8.15;;;4.60;;
76745;SDS011;65671;49.976;20.038;2022-12-07T05:16:57;8.48;;;4.78;;
76745;SDS011;65671;49.976;20.038;2022-12-07T05:19:22;11.20;;;5.18;;
76745;SDS011;65671;49.976;20.038;2022-12-07T05:24:14;9.20;;;6.03;;
76745;SDS011;65671;49.976;20.038;2022-12-07T05:26:41;10.48;;;6.60;;
76745;SDS011;65671;49.976;20.038;2022-12-07T05:29:06;8.10;;;6.13;;
76745;SDS011;65671;49.976;20.038;2022-12-07T05:31:32;10.32;;;6.40;;
76745;SDS011;65671;49.976;20.038;2022-12-07T05:36:23;11.33;;;6.53;;
76745;SDS011;65671;49.976;20.038;2022-12-07T05:41:15;11.53;;;7.27;;
76745;SDS011;65671;49.976;20.038;2022-12-07T05:44:00;10.85;;;7.07;;
76745;SDS011;65671;49.976;20.038;2022-12-07T05:46:26;12.68;;;7.05;;
76745;SDS011;65671;49.976;20.038;2022-12-07T05:51:17;12.17;;;6.90;;
76745;SDS011;65671;49.976;20.038;2022-12-07T05:53:43;13.88;;;7.10;;
76745;SDS011;65671;49.976;20.038;2022-12-07T05:56:09;13.70;;;7.72;;
76745;SDS011;65671;49.976;20.038;2022-12-07T06:01:19;14.88;;;7.13;;
76745;SDS011;65671;49.976;20.038;2022-12-07T06:03:44;17.42;;;8.52;;
76745;SDS011;65671;49.976;20.038;2022-12-07T06:06:10;15.32;;;7.93;;
76745;SDS011;65671;49.976;20.038;2022-12-07T06:08:36;16.42;;;9.80;;
76745;SDS011;65671;49.976;20.038;2022-12-07T06:11:02;13.45;;;8.88;;
76745;SDS011;65671;49.976;20.038;2022-12-07T06:13:46;12.27;;;7.70;;
76745;SDS011;65671;49.976;20.038;2022-12-07T06:16:11;15.88;;;8.55;;
76745;SDS011;65671;49.976;20.038;2022-12-07T06:21:02;9.37;;;6.33;;
76745;SDS011;65671;49.976;20.038;2022-12-07T06:23:28;13.18;;;8.70;;
76745;SDS011;65671;49.976;20.038;2022-12-07T06:25:53;12.90;;;8.32;;
76745;SDS011;65671;49.976;20.038;2022-12-07T06:28:18;13.52;;;7.95;;
76745;SDS011;65671;49.976;20.038;2022-12-07T06:30:44;8.52;;;4.95;;
76745;SDS011;65671;49.976;20.038;2022-12-07T06:35:35;4.85;;;3.08;;
76745;SDS011;65671;49.976;20.038;2022-12-07T06:38:01;8.02;;;4.93;;
76745;SDS011;65671;49.976;20.038;2022-12-07T06:40:26;8.52;;;4.97;;
76745;SDS011;65671;49.976;20.038;2022-12-07T06:45:17;8.93;;;5.57;;
76745;SDS011;65671;49.976;20.038;2022-12-07T06:47:43;7.78;;;4.57;;
76745;SDS011;65671;49.976;20.038;2022-12-07T06:52:34;7.18;;;4.35;;
76745;SDS011;65671;49.976;20.038;2022-12-07T06:54:59;11.45;;;5.57;;
76745;SDS011;65671;49.976;20.038;2022-12-07T06:57:25;7.82;;;4.20;;
76745;SDS011;65671;49.976;20.038;2022-12-07T06:59:51;11.82;;;6.45;;
76745;SDS011;65671;49.976;20.038;2022-12-07T07:02:16;8.85;;;5.78;;
76745;SDS011;65671;49.976;20.038;2022-12-07T07:04:43;10.43;;;6.50;;
76745;SDS011;65671;49.976;20.038;2022-12-07T07:07:08;10.48;;;6.15;;
76745;SDS011;65671;49.976;20.038;2022-12-07T07:09:34;10.15;;;6.57;;
76745;SDS011;65671;49.976;20.038;2022-12-07T07:11:59;11.25;;;7.13;;
76745;SDS011;65671;49.976;20.038;2022-12-07T07:14:24;14.23;;;8.50;;
76745;SDS011;65671;49.976;20.038;2022-12-07T07:16:50;13.93;;;8.30;;
76745;SDS011;65671;49.976;20.038;2022-12-07T07:19:16;13.00;;;8.10;;
76745;SDS011;65671;49.976;20.038;2022-12-07T07:21:44;14.70;;;8.35;;
76745;SDS011;65671;49.976;20.038;2022-12-07T07:24:10;15.55;;;10.10;;
76745;SDS011;65671;49.976;20.038;2022-12-07T07:26:36;13.77;;;8.45;;
76745;SDS011;65671;49.976;20.038;2022-12-07T07:29:01;15.18;;;9.15;;
76745;SDS011;65671;49.976;20.038;2022-12-07T07:31:27;16.33;;;9.90;;
76745;SDS011;65671;49.976;20.038;2022-12-07T07:36:17;17.23;;;9.17;;
76745;SDS011;65671;49.976;20.038;2022-12-07T07:38:43;18.40;;;10.15;;
76745;SDS011;65671;49.976;20.038;2022-12-07T07:41:08;18.17;;;10.50;;
76745;SDS011;65671;49.976;20.038;2022-12-07T07:43:34;19.35;;;11.10;;
76745;SDS011;65671;49.976;20.038;2022-12-07T07:45:59;14.25;;;8.70;;
76745;SDS011;65671;49.976;20.038;2022-12-07T07:48:25;13.63;;;8.25;;
76745;SDS011;65671;49.976;20.038;2022-12-07T07:50:50;23.60;;;12.57;;
76745;SDS011;65671;49.976;20.038;2022-12-07T07:53:16;23.20;;;12.20;;
76745;SDS011;65671;49.976;20.038;2022-12-07T07:55:49;24.48;;;13.38;;
76745;SDS011;65671;49.976;20.038;2022-12-07T07:58:19;20.05;;;11.68;;
76745;SDS011;65671;49.976;20.038;2022-12-07T08:00:45;19.52;;;9.95;;
76745;SDS011;65671;49.976;20.038;2022-12-07T08:03:10;16.65;;;9.18;;
76745;SDS011;65671;49.976;20.038;2022-12-07T08:05:36;18.95;;;10.57;;
76745;SDS011;65671;49.976;20.038;2022-12-07T08:08:02;20.63;;;11.40;;
76745;SDS011;65671;49.976;20.038;2022-12-07T08:10:28;16.67;;;10.05;;
76745;SDS011;65671;49.976;20.038;2022-12-07T08:12:53;18.88;;;11.70;;
76745;SDS011;65671;49.976;20.038;2022-12-07T08:15:42;17.27;;;10.05;;
76745;SDS011;65671;49.976;20.038;2022-12-07T08:18:10;17.45;;;10.23;;
76745;SDS011;65671;49.976;20.038;2022-12-07T08:20:36;20.48;;;11.98;;
76745;SDS011;65671;49.976;20.038;2022-12-07T08:23:02;23.77;;;10.65;;
76745;SDS011;65671;49.976;20.038;2022-12-07T08:27:54;12.63;;;7.25;;
76745;SDS011;65671;49.976;20.038;2022-12-07T08:30:19;13.60;;;8.93;;
76745;SDS011;65671;49.976;20.038;2022-12-07T08:32:46;11.50;;;7.63;;
76745;SDS011;65671;49.976;20.038;2022-12-07T08:35:12;13.45;;;7.43;;
76745;SDS011;65671;49.976;20.038;2022-12-07T08:37:38;11.15;;;7.38;;
76745;SDS011;65671;49.976;20.038;2022-12-07T08:40:04;10.85;;;6.82;;
76745;SDS011;65671;49.976;20.038;2022-12-07T08:42:31;11.25;;;7.22;;
76745;SDS011;65671;49.976;20.038;2022-12-07T08:45:12;20.10;;;7.63;;
76745;SDS011;65671;49.976;20.038;2022-12-07T08:48:01;10.70;;;6.95;;
76745;SDS011;65671;49.976;20.038;2022-12-07T08:50:28;14.63;;;8.75;;
76745;SDS011;65671;49.976;20.038;2022-12-07T08:52:55;12.05;;;7.95;;
76745;SDS011;65671;49.976;20.038;2022-12-07T08:55:23;12.02;;;7.03;;
76745;SDS011;65671;49.976;20.038;2022-12-07T08:57:49;14.20;;;8.00;;
76745;SDS011;65671;49.976;20.038;2022-12-07T09:00:15;10.05;;;7.05;;
76745;SDS011;65671;49.976;20.038;2022-12-07T09:02:43;12.73;;;8.20;;
76745;SDS011;65671;49.976;20.038;2022-12-07T09:05:09;17.23;;;8.60;;
76745;SDS011;65671;49.976;20.038;2022-12-07T09:10:01;7.85;;;5.57;;
76745;SDS011;65671;49.976;20.038;2022-12-07T09:12:28;9.23;;;6.65;;
76745;SDS011;65671;49.976;20.038;2022-12-07T09:14:54;13.10;;;8.05;;
76745;SDS011;65671;49.976;20.038;2022-12-07T09:19:44;9.93;;;5.13;;
76745;SDS011;65671;49.976;20.038;2022-12-07T09:24:35;8.50;;;5.68;;
76745;SDS011;65671;49.976;20.038;2022-12-07T09:27:01;12.20;;;7.25;;
76745;SDS011;65671;49.976;20.038;2022-12-07T09:29:27;14.57;;;6.72;;
76745;SDS011;65671;49.976;20.038;2022-12-07T09:31:52;9.77;;;6.28;;
76745;SDS011;65671;49.976;20.038;2022-12-07T09:34:18;8.13;;;5.38;;
76745;SDS011;65671;49.976;20.038;2022-12-07T09:36:43;10.10;;;6.70;;
76745;SDS011;65671;49.976;20.038;2022-12-07T09:39:09;9.90;;;5.13;;
76745;SDS011;65671;49.976;20.038;2022-12-07T09:41:38;15.93;;;6.60;;
76745;SDS011;65671;49.976;20.038;2022-12-07T09:44:09;12.27;;;6.78;;
76745;SDS011;65671;49.976;20.038;2022-12-07T09:46:39;9.40;;;5.70;;
76745;SDS011;65671;49.976;20.038;2022-12-07T09:49:15;8.60;;;4.80;;
76745;SDS011;65671;49.976;20.038;2022-12-07T09:51:44;11.13;;;5.45;;
76745;SDS011;65671;49.976;20.038;2022-12-07T09:54:14;7.40;;;5.10;;
76745;SDS011;65671;49.976;20.038;2022-12-07T09:56:41;8.38;;;5.53;;
76745;SDS011;65671;49.976;20.038;2022-12-07T09:59:13;9.32;;;5.45;;
76745;SDS011;65671;49.976;20.038;2022-12-07T10:01:42;7.55;;;5.65;;
76745;SDS011;65671;49.976;20.038;2022-12-07T10:06:47;8.35;;;6.22;;
76745;SDS011;65671;49.976;20.038;2022-12-07T10:12:02;10.90;;;6.93;;
76745;SDS011;65671;49.976;20.038;2022-12-07T10:14:52;14.38;;;7.60;;
76745;SDS011;65671;49.976;20.038;2022-12-07T10:17:39;10.25;;;6.15;;
76745;SDS011;65671;49.976;20.038;2022-12-07T10:20:17;11.32;;;6.07;;
76745;SDS011;65671;49.976;20.038;2022-12-07T10:25:22;13.18;;;7.93;;
76745;SDS011;65671;49.976;20.038;2022-12-07T10:31:21;7.45;;;5.55;;
76745;SDS011;65671;49.976;20.038;2022-12-07T10:33:33;10.52;;;6.95;;
76745;SDS011;65671;49.976;20.038;2022-12-07T10:36:25;12.13;;;7.13;;
76745;SDS011;65671;49.976;20.038;2022-12-07T10:38:52;13.70;;;8.23;;
76745;SDS011;65671;49.976;20.038;2022-12-07T10:44:41;9.60;;;6.80;;
76745;SDS011;65671;49.976;20.038;2022-12-07T10:47:17;9.57;;;6.15;;
76745;SDS011;65671;49.976;20.038;2022-12-07T10:52:48;9.85;;;6.80;;
76745;SDS011;65671;49.976;20.038;2022-12-07T10:55:26;11.25;;;6.65;;
76745;SDS011;65671;49.976;20.038;2022-12-07T11:14:41;11.60;;;7.03;;
76745;SDS011;65671;49.976;20.038;2022-12-07T11:17:19;12.70;;;7.60;;
76745;SDS011;65671;49.976;20.038;2022-12-07T11:25:44;11.07;;;7.07;;
76745;SDS011;65671;49.976;20.038;2022-12-07T11:38:54;11.70;;;7.07;;
76745;SDS011;65671;49.976;20.038;2022-12-07T11:41:26;12.68;;;6.32;;
76745;SDS011;65671;49.976;20.038;2022-12-07T11:43:56;9.82;;;6.65;;
76745;SDS011;65671;49.976;20.038;2022-12-07T11:46:36;9.82;;;6.35;;
76745;SDS011;65671;49.976;20.038;2022-12-07T11:52:42;6.22;;;3.97;;
76745;SDS011;65671;49.976;20.038;2022-12-07T11:55:21;8.65;;;4.78;;
76745;SDS011;65671;49.976;20.038;2022-12-07T11:58:14;6.22;;;4.15;;
76745;SDS011;65671;49.976;20.038;2022-12-07T12:00:51;7.20;;;3.90;;
76745;SDS011;65671;49.976;20.038;2022-12-07T12:03:36;7.53;;;4.25;;
76745;SDS011;65671;49.976;20.038;2022-12-07T12:06:10;7.72;;;4.35;;
76745;SDS011;65671;49.976;20.038;2022-12-07T12:11:13;8.07;;;4.75;;
76745;SDS011;65671;49.976;20.038;2022-12-07T12:14:02;10.27;;;5.43;;
76745;SDS011;65671;49.976;20.038;2022-12-07T12:19:36;9.23;;;4.90;;
76745;SDS011;65671;49.976;20.038;2022-12-07T12:22:12;9.80;;;5.32;;
76745;SDS011;65671;49.976;20.038;2022-12-07T12:24:46;8.00;;;4.75;;
76745;SDS011;65671;49.976;20.038;2022-12-07T12:29:52;6.07;;;4.53;;
76745;SDS011;65671;49.976;20.038;2022-12-07T12:32:21;10.80;;;6.60;;
76745;SDS011;65671;49.976;20.038;2022-12-07T12:34:58;6.85;;;4.40;;
76745;SDS011;65671;49.976;20.038;2022-12-07T12:42:44;7.68;;;4.55;;
76745;SDS011;65671;49.976;20.038;2022-12-07T12:45:23;6.85;;;3.70;;
76745;SDS011;65671;49.976;20.038;2022-12-07T13:00:02;5.20;;;3.40;;
76745;SDS011;65671;49.976;20.038;2022-12-07T13:02:52;7.25;;;4.00;;
76745;SDS011;65671;49.976;20.038;2022-12-07T13:05:20;5.70;;;3.50;;
76745;SDS011;65671;49.976;20.038;2022-12-07T13:07:57;5.90;;;3.70;;
76745;SDS011;65671;49.976;20.038;2022-12-07T13:10:44;6.03;;;3.55;;
76745;SDS011;65671;49.976;20.038;2022-12-07T13:18:25;5.97;;;3.85;;
76745;SDS011;65671;49.976;20.038;2022-12-07T13:23:55;6.43;;;4.30;;
76745;SDS011;65671;49.976;20.038;2022-12-07T13:31:45;7.75;;;4.38;;
76745;SDS011;65671;49.976;20.038;2022-12-07T13:34:32;9.40;;;5.20;;
76745;SDS011;65671;49.976;20.038;2022-12-07T13:37:04;8.85;;;5.05;;
76745;SDS011;65671;49.976;20.038;2022-12-07T13:39:46;8.07;;;4.47;;
76745;SDS011;65671;49.976;20.038;2022-12-07T13:42:22;7.88;;;4.85;;
76745;SDS011;65671;49.976;20.038;2022-12-07T13:44:51;8.02;;;4.78;;
76745;SDS011;65671;49.976;20.038;2022-12-07T13:49:46;19.33;;;9.77;;
76745;SDS011;65671;49.976;20.038;2022-12-07T13:57:24;16.63;;;7.28;;
76745;SDS011;65671;49.976;20.038;2022-12-07T13:59:51;17.58;;;8.50;;
76745;SDS011;65671;49.976;20.038;2022-12-07T14:02:21;23.92;;;10.05;;
76745;SDS011;65671;49.976;20.038;2022-12-07T14:04:52;19.67;;;8.75;;
76745;SDS011;65671;49.976;20.038;2022-12-07T14:07:58;21.95;;;9.13;;
76745;SDS011;65671;49.976;20.038;2022-12-07T14:16:01;9.60;;;5.57;;
76745;SDS011;65671;49.976;20.038;2022-12-07T14:18:43;24.98;;;10.20;;
76745;SDS011;65671;49.976;20.038;2022-12-07T14:23:34;22.13;;;9.07;;
76745;SDS011;65671;49.976;20.038;2022-12-07T14:28:34;15.25;;;7.65;;
76745;SDS011;65671;49.976;20.038;2022-12-07T14:31:01;15.93;;;8.70;;
76745;SDS011;65671;49.976;20.038;2022-12-07T14:33:27;10.95;;;6.10;;
76745;SDS011;65671;49.976;20.038;2022-12-07T14:35:53;9.15;;;5.28;;
76745;SDS011;65671;49.976;20.038;2022-12-07T14:38:21;13.02;;;6.75;;
76745;SDS011;65671;49.976;20.038;2022-12-07T14:40:47;7.60;;;5.22;;
76745;SDS011;65671;49.976;20.038;2022-12-07T14:43:14;9.73;;;5.78;;
76745;SDS011;65671;49.976;20.038;2022-12-07T14:45:41;11.73;;;6.25;;
76745;SDS011;65671;49.976;20.038;2022-12-07T14:48:07;9.52;;;6.05;;
76745;SDS011;65671;49.976;20.038;2022-12-07T14:50:37;9.23;;;5.68;;
76745;SDS011;65671;49.976;20.038;2022-12-07T14:53:39;9.65;;;6.05;;
76745;SDS011;65671;49.976;20.038;2022-12-07T14:56:00;11.32;;;6.03;;
76745;SDS011;65671;49.976;20.038;2022-12-07T14:58:26;8.43;;;4.95;;
76745;SDS011;65671;49.976;20.038;2022-12-07T15:03:17;8.40;;;5.13;;
76745;SDS011;65671;49.976;20.038;2022-12-07T15:05:42;8.93;;;6.13;;
76745;SDS011;65671;49.976;20.038;2022-12-07T15:08:08;11.10;;;6.38;;
76745;SDS011;65671;49.976;20.038;2022-12-07T15:10:35;10.25;;;6.00;;
76745;SDS011;65671;49.976;20.038;2022-12-07T15:13:04;9.20;;;6.13;;
76745;SDS011;65671;49.976;20.038;2022-12-07T15:18:15;10.75;;;6.22;;
76745;SDS011;65671;49.976;20.038;2022-12-07T15:20:41;10.43;;;5.22;;
76745;SDS011;65671;49.976;20.038;2022-12-07T15:23:07;11.60;;;6.05;;
76745;SDS011;65671;49.976;20.038;2022-12-07T15:25:32;10.43;;;5.57;;
76745;SDS011;65671;49.976;20.038;2022-12-07T15:30:24;13.95;;;6.20;;
76745;SDS011;65671;49.976;20.038;2022-12-07T15:35:18;8.90;;;5.93;;
76745;SDS011;65671;49.976;20.038;2022-12-07T15:37:45;11.30;;;6.50;;
76745;SDS011;65671;49.976;20.038;2022-12-07T15:40:11;12.65;;;6.78;;
76745;SDS011;65671;49.976;20.038;2022-12-07T15:45:03;11.43;;;6.35;;
76745;SDS011;65671;49.976;20.038;2022-12-07T15:47:40;10.30;;;6.38;;
76745;SDS011;65671;49.976;20.038;2022-12-07T15:50:08;10.98;;;5.88;;
76745;SDS011;65671;49.976;20.038;2022-12-07T15:52:42;12.38;;;6.18;;
76745;SDS011;65671;49.976;20.038;2022-12-07T15:55:08;16.80;;;7.40;;
76745;SDS011;65671;49.976;20.038;2022-12-07T15:57:36;14.90;;;8.90;;
76745;SDS011;65671;49.976;20.038;2022-12-07T16:00:06;13.73;;;7.53;;
76745;SDS011;65671;49.976;20.038;2022-12-07T16:02:34;14.05;;;8.13;;
76745;SDS011;65671;49.976;20.038;2022-12-07T16:04:59;15.23;;;8.15;;
76745;SDS011;65671;49.976;20.038;2022-12-07T16:07:25;15.23;;;8.48;;
76745;SDS011;65671;49.976;20.038;2022-12-07T16:12:16;13.63;;;7.55;;
76745;SDS011;65671;49.976;20.038;2022-12-07T16:14:41;14.70;;;7.57;;
76745;SDS011;65671;49.976;20.038;2022-12-07T16:17:08;16.83;;;7.45;;
76745;SDS011;65671;49.976;20.038;2022-12-07T16:19:34;14.10;;;7.60;;
76745;SDS011;65671;49.976;20.038;2022-12-07T16:22:01;14.68;;;8.00;;
76745;SDS011;65671;49.976;20.038;2022-12-07T16:24:28;18.23;;;9.23;;
76745;SDS011;65671;49.976;20.038;2022-12-07T16:26:54;17.40;;;8.20;;
76745;SDS011;65671;49.976;20.038;2022-12-07T16:31:46;14.75;;;7.72;;
76745;SDS011;65671;49.976;20.038;2022-12-07T16:34:12;15.23;;;8.00;;
76745;SDS011;65671;49.976;20.038;2022-12-07T16:36:38;14.82;;;7.28;;
76745;SDS011;65671;49.976;20.038;2022-12-07T16:41:30;17.15;;;8.15;;
76745;SDS011;65671;49.976;20.038;2022-12-07T16:43:55;15.25;;;8.50;;
76745;SDS011;65671;49.976;20.038;2022-12-07T16:48:46;14.97;;;9.10;;
76745;SDS011;65671;49.976;20.038;2022-12-07T16:53:39;16.75;;;8.45;;
76745;SDS011;65671;49.976;20.038;2022-12-07T16:56:10;19.20;;;10.40;;
76745;SDS011;65671;49.976;20.038;2022-12-07T16:58:37;18.02;;;10.23;;
76745;SDS011;65671;49.976;20.038;2022-12-07T17:03:38;18.67;;;9.95;;
76745;SDS011;65671;49.976;20.038;2022-12-07T17:06:10;17.45;;;10.32;;
76745;SDS011;65671;49.976;20.038;2022-12-07T17:08:41;18.20;;;9.15;;
76745;SDS011;65671;49.976;20.038;2022-12-07T17:11:14;19.13;;;10.27;;
76745;SDS011;65671;49.976;20.038;2022-12-07T17:13:41;18.25;;;10.15;;
76745;SDS011;65671;49.976;20.038;2022-12-07T17:16:26;15.23;;;9.35;;
76745;SDS011;65671;49.976;20.038;2022-12-07T17:18:52;16.73;;;9.10;;
76745;SDS011;65671;49.976;20.038;2022-12-07T17:21:17;17.23;;;9.25;;
76745;SDS011;65671;49.976;20.038;2022-12-07T17:26:10;15.85;;;10.18;;
76745;SDS011;65671;49.976;20.038;2022-12-07T17:28:37;19.25;;;9.52;;
76745;SDS011;65671;49.976;20.038;2022-12-07T17:31:04;15.77;;;9.00;;
76745;SDS011;65671;49.976;20.038;2022-12-07T17:33:31;11.50;;;7.22;;
76745;SDS011;65671;49.976;20.038;2022-12-07T17:38:22;13.13;;;7.23;;
76745;SDS011;65671;49.976;20.038;2022-12-07T17:40:47;16.38;;;7.88;;
76745;SDS011;65671;49.976;20.038;2022-12-07T17:43:13;15.85;;;7.68;;
76745;SDS011;65671;49.976;20.038;2022-12-07T17:45:39;12.75;;;7.53;;
76745;SDS011;65671;49.976;20.038;2022-12-07T17:48:05;17.20;;;9.30;;
76745;SDS011;65671;49.976;20.038;2022-12-07T17:50:31;13.57;;;7.97;;
76745;SDS011;65671;49.976;20.038;2022-12-07T17:53:15;15.48;;;8.30;;
76745;SDS011;65671;49.976;20.038;2022-12-07T17:55:40;13.65;;;8.30;;
76745;SDS011;65671;49.976;20.038;2022-12-07T17:58:06;19.48;;;9.30;;
76745;SDS011;65671;49.976;20.038;2022-12-07T18:03:02;16.02;;;8.45;;
76745;SDS011;65671;49.976;20.038;2022-12-07T18:05:36;20.13;;;10.48;;
76745;SDS011;65671;49.976;20.038;2022-12-07T18:08:03;18.75;;;8.80;;
76745;SDS011;65671;49.976;20.038;2022-12-07T18:10:29;16.42;;;8.82;;
76745;SDS011;65671;49.976;20.038;2022-12-07T18:12:55;20.48;;;8.57;;
76745;SDS011;65671;49.976;20.038;2022-12-07T18:15:40;16.70;;;7.45;;
76745;SDS011;65671;49.976;20.038;2022-12-07T18:18:06;18.77;;;7.70;;
76745;SDS011;65671;49.976;20.038;2022-12-07T18:20:32;16.77;;;8.05;;
76745;SDS011;65671;49.976;20.038;2022-12-07T18:22:57;16.27;;;7.57;;
76745;SDS011;65671;49.976;20.038;2022-12-07T18:25:23;15.75;;;7.97;;
76745;SDS011;65671;49.976;20.038;2022-12-07T18:27:48;16.95;;;8.82;;
76745;SDS011;65671;49.976;20.038;2022-12-07T18:32:39;18.60;;;8.67;;
76745;SDS011;65671;49.976;20.038;2022-12-07T18:35:04;17.20;;;9.32;;
76745;SDS011;65671;49.976;20.038;2022-12-07T18:37:31;15.55;;;9.05;;
76745;SDS011;65671;49.976;20.038;2022-12-07T18:39:57;20.88;;;9.15;;
76745;SDS011;65671;49.976;20.038;2022-12-07T18:42:22;18.95;;;9.85;;
76745;SDS011;65671;49.976;20.038;2022-12-07T18:44:48;17.45;;;9.50;;
76745;SDS011;65671;49.976;20.038;2022-12-07T18:49:39;15.77;;;8.68;;
76745;SDS011;65671;49.976;20.038;2022-12-07T18:54:30;17.17;;;9.15;;
76745;SDS011;65671;49.976;20.038;2022-12-07T18:59:21;14.07;;;7.20;;
76745;SDS011;65671;49.976;20.038;2022-12-07T19:02:05;13.93;;;7.53;;
76745;SDS011;65671;49.976;20.038;2022-12-07T19:04:31;14.40;;;8.20;;